createdAt,value
2019-03-10T00:00:21.559Z,54.20
2019-03-10T00:02:50.001Z,54.20
2019-03-10T00:05:18.491Z,54.20
2019-03-10T00:07:46.955Z,54.30
2019-03-10T00:10:15.377Z,54.10
2019-03-10T00:12:44.164Z,54.40
2019-03-10T00:15:13.054Z,54.30
2019-03-10T00:17:41.461Z,54.60
2019-03-10T00:20:10.785Z,54.30
2019-03-10T00:22:39.208Z,54.50
2019-03-10T00:25:09.263Z,54.40
2019-03-10T00:27:38.460Z,54.60
2019-03-10T00:30:17.889Z,54.50
2019-03-10T00:32:46.310Z,54.30
2019-03-10T00:35:14.777Z,54.30
2019-03-10T00:37:43.337Z,54.20
2019-03-10T00:40:46.520Z,54.20
2019-03-10T00:43:26.797Z,54.20
2019-03-10T00:46:25.443Z,54.10
2019-03-10T00:49:15.050Z,53.90
2019-03-10T00:52:03.247Z,54.10
2019-03-10T00:54:31.677Z,54.40
2019-03-10T00:57:03.418Z,54.50
2019-03-10T00:59:32.283Z,54.80
2019-03-10T01:02:00.715Z,55.10
2019-03-10T01:04:29.271Z,55.30
2019-03-10T01:06:57.841Z,55.40
2019-03-10T01:09:26.324Z,55.60
2019-03-10T01:11:54.796Z,56.00
2019-03-10T01:14:23.240Z,56.30
2019-03-10T01:16:51.761Z,56.50
2019-03-10T01:19:20.245Z,57.20
2019-03-10T01:21:49.627Z,56.30
2019-03-10T01:24:18.043Z,56.20
2019-03-10T01:26:46.466Z,55.90
2019-03-10T01:29:14.948Z,56.10
2019-03-10T01:32:01.506Z,56.20
2019-03-10T01:34:58.839Z,56.30
2019-03-10T01:37:27.265Z,56.50
2019-03-10T01:39:55.773Z,56.70
2019-03-10T01:42:24.176Z,56.90
2019-03-10T01:44:52.665Z,56.70
2019-03-10T01:47:21.086Z,57.10
2019-03-10T01:49:49.523Z,57.50
2019-03-10T01:52:18.005Z,57.90
2019-03-10T01:54:46.450Z,57.90
2019-03-10T01:57:14.916Z,58.10
2019-03-10T01:59:43.326Z,58.10
2019-03-10T02:02:11.735Z,58.30
2019-03-10T02:04:40.154Z,58.50
2019-03-10T02:07:08.573Z,58.50
2019-03-10T02:09:36.996Z,58.70
2019-03-10T02:12:05.422Z,58.40
2019-03-10T02:14:33.837Z,58.30
2019-03-10T02:17:02.293Z,58.10
2019-03-10T02:19:30.691Z,58.00
2019-03-10T02:22:00.340Z,58.10
2019-03-10T02:24:28.758Z,58.10
2019-03-10T02:26:57.189Z,58.00
2019-03-10T02:29:25.631Z,58.20
2019-03-10T02:31:54.143Z,58.20
2019-03-10T02:34:22.547Z,58.50
2019-03-10T02:36:50.966Z,58.80
2019-03-10T02:39:19.394Z,59.20
2019-03-10T02:41:47.821Z,59.60
2019-03-10T02:44:16.253Z,59.80
2019-03-10T02:46:44.693Z,59.90
2019-03-10T02:49:13.108Z,59.70
2019-03-10T02:51:41.526Z,59.90
2019-03-10T02:54:09.973Z,59.90
2019-03-10T02:56:38.426Z,59.80
2019-03-10T02:59:06.838Z,59.50
2019-03-10T03:01:35.333Z,59.30
2019-03-10T03:04:03.743Z,59.00
2019-03-10T03:06:51.502Z,58.00
2019-03-10T03:09:19.974Z,57.10
2019-03-10T03:11:48.433Z,55.20
2019-03-10T03:14:16.994Z,54.40
2019-03-10T03:16:45.443Z,53.60
2019-03-10T03:19:13.926Z,52.80
2019-03-10T03:21:43.836Z,53.30
2019-03-10T03:24:12.914Z,53.70
2019-03-10T03:26:41.361Z,53.80
2019-03-10T03:29:09.822Z,52.80
2019-03-10T03:31:38.263Z,47.00
2019-03-10T03:34:06.676Z,44.60
2019-03-10T03:36:36.058Z,43.30
2019-03-10T03:39:10.222Z,42.10
2019-03-10T03:41:38.715Z,41.60
2019-03-10T03:44:07.527Z,42.40
2019-03-10T03:46:35.960Z,43.60
2019-03-10T03:49:04.378Z,46.20
2019-03-10T03:51:33.101Z,48.10
2019-03-10T03:54:01.978Z,51.50
2019-03-10T03:56:30.679Z,54.40
2019-03-10T03:58:59.137Z,57.70
2019-03-10T04:01:31.873Z,57.60
2019-03-10T04:04:00.303Z,59.10
2019-03-10T04:06:28.797Z,60.10
2019-03-10T04:08:57.222Z,58.20
2019-03-10T04:11:25.669Z,59.00
2019-03-10T04:13:54.099Z,59.00
2019-03-10T04:16:22.497Z,58.00
2019-03-10T04:18:50.897Z,59.60
2019-03-10T04:21:19.371Z,58.70
2019-03-10T04:23:47.811Z,58.70
2019-03-10T04:26:16.220Z,58.10
2019-03-10T04:28:44.656Z,58.30
2019-03-10T04:31:13.083Z,59.20
2019-03-10T04:33:41.649Z,60.10
2019-03-10T04:36:10.114Z,61.20
2019-03-10T04:38:38.535Z,59.30
2019-03-10T04:41:06.943Z,60.20
2019-03-10T04:43:35.365Z,61.10
2019-03-10T04:46:03.773Z,60.10
2019-03-10T04:48:32.490Z,60.90
2019-03-10T04:51:00.903Z,59.70
2019-03-10T04:53:29.318Z,60.20
2019-03-10T04:56:02.153Z,61.40
2019-03-10T04:58:31.741Z,61.90
2019-03-10T05:01:00.154Z,63.30
2019-03-10T05:03:28.906Z,65.80
2019-03-10T05:05:57.338Z,66.70
2019-03-10T05:08:25.765Z,68.20
2019-03-10T05:10:54.197Z,69.80
2019-03-10T05:13:22.622Z,71.00
2019-03-10T05:15:51.017Z,72.30
2019-03-10T05:18:19.433Z,73.50
2019-03-10T05:20:48.776Z,73.80
2019-03-10T05:23:36.719Z,76.10
2019-03-10T05:26:05.816Z,76.80
2019-03-10T05:28:36.691Z,74.90
2019-03-10T05:31:05.182Z,75.70
2019-03-10T05:33:33.605Z,78.40
2019-03-10T05:36:02.009Z,79.00
2019-03-10T05:38:30.460Z,79.80
2019-03-10T05:40:58.867Z,82.30
2019-03-10T05:43:27.281Z,84.10
2019-03-10T05:45:55.729Z,86.20
2019-03-10T05:48:24.442Z,87.90
2019-03-10T05:50:52.860Z,90.00
2019-03-10T05:53:21.295Z,90.40
2019-03-10T05:55:49.698Z,90.70
2019-03-10T05:58:18.137Z,90.90
2019-03-10T06:00:46.941Z,90.80
2019-03-10T06:03:15.349Z,90.60
2019-03-10T06:05:43.766Z,91.50
2019-03-10T06:08:12.178Z,91.40
2019-03-10T06:10:40.573Z,91.30
2019-03-10T06:13:09.005Z,91.60
2019-03-10T06:15:37.411Z,92.00
2019-03-10T06:18:13.491Z,92.00
2019-03-10T06:20:36.006Z,92.10
2019-03-10T06:23:04.421Z,92.40
2019-03-10T06:25:35.065Z,92.50
2019-03-10T06:28:02.966Z,92.80
2019-03-10T06:30:31.461Z,93.30
2019-03-10T06:32:59.900Z,93.20
2019-03-10T06:35:28.302Z,93.70
2019-03-10T06:37:56.737Z,94.00
2019-03-10T06:40:32.084Z,94.10
2019-03-10T06:42:55.640Z,94.30
2019-03-10T06:45:24.049Z,93.80
2019-03-10T06:47:52.469Z,93.30
2019-03-10T06:50:20.889Z,93.00
2019-03-10T06:52:49.307Z,92.70
2019-03-10T06:55:17.715Z,92.70
2019-03-10T06:57:46.141Z,92.30
2019-03-10T07:00:14.740Z,91.70
2019-03-10T07:02:43.153Z,91.00
2019-03-10T07:05:14.438Z,91.00
2019-03-10T07:07:42.918Z,90.30
2019-03-10T07:10:13.271Z,90.00
2019-03-10T07:12:41.757Z,90.10
2019-03-10T07:15:12.286Z,90.10
2019-03-10T07:17:40.769Z,90.00
2019-03-10T07:20:19.779Z,90.00
2019-03-10T07:22:48.209Z,90.20
2019-03-10T07:25:16.609Z,90.00
2019-03-10T07:27:46.719Z,89.00
2019-03-10T07:30:31.789Z,90.00
2019-03-10T07:33:17.042Z,90.00
2019-03-10T07:35:49.755Z,90.00
2019-03-10T07:38:20.130Z,89.80
2019-03-10T07:40:52.729Z,88.50
2019-03-10T07:43:25.754Z,87.40
2019-03-10T07:45:55.793Z,87.50
2019-03-10T07:48:31.850Z,87.20
2019-03-10T07:51:01.893Z,87.00
2019-03-10T07:53:37.705Z,85.80
2019-03-10T07:56:11.511Z,85.40
2019-03-10T07:58:41.845Z,85.10
2019-03-10T08:01:30.139Z,84.40
2019-03-10T08:04:02.634Z,83.60
2019-03-10T08:06:44.423Z,83.50
2019-03-10T08:09:14.482Z,82.80
2019-03-10T08:11:50.545Z,82.70
2019-03-10T08:14:37.107Z,81.50
2019-03-10T08:17:21.774Z,80.50
2019-03-10T08:19:51.841Z,80.70
2019-03-10T08:22:38.306Z,81.40
2019-03-10T08:25:15.411Z,82.80
2019-03-10T08:28:01.925Z,83.20
2019-03-10T08:30:35.347Z,84.40
2019-03-10T08:33:22.303Z,84.50
2019-03-10T08:36:04.249Z,84.40
2019-03-10T08:38:37.244Z,84.60
2019-03-10T08:41:07.295Z,85.30
2019-03-10T08:43:52.649Z,85.90
2019-03-10T08:46:22.745Z,83.50
2019-03-10T08:49:04.770Z,84.00
2019-03-10T08:51:34.854Z,83.80
2019-03-10T08:54:10.761Z,83.00
2019-03-10T08:56:43.441Z,83.90
2019-03-10T08:59:16.310Z,84.10
2019-03-10T09:01:49.145Z,84.20
2019-03-10T09:04:31.177Z,83.20
2019-03-10T09:07:07.336Z,84.10
2019-03-10T09:09:46.179Z,84.10
2019-03-10T09:12:16.240Z,82.40
2019-03-10T09:14:58.254Z,82.70
2019-03-10T09:17:44.716Z,83.20
2019-03-10T09:20:14.812Z,84.30
2019-03-10T09:22:59.878Z,84.50
2019-03-10T09:25:32.632Z,84.20
2019-03-10T09:28:02.667Z,84.20
2019-03-10T09:30:41.831Z,82.90
2019-03-10T09:33:11.896Z,82.00
2019-03-10T09:35:51.102Z,82.30
2019-03-10T09:38:24.062Z,83.60
2019-03-10T09:41:09.245Z,84.30
2019-03-10T09:43:39.294Z,84.60
2019-03-10T09:46:12.145Z,88.20
2019-03-10T09:48:58.423Z,87.70
2019-03-10T09:51:28.488Z,86.70
2019-03-10T09:54:01.345Z,87.80
2019-03-10T09:56:40.424Z,88.30
2019-03-10T09:59:19.333Z,88.80
2019-03-10T10:02:04.418Z,88.20
2019-03-10T10:04:34.474Z,88.60
2019-03-10T10:07:19.539Z,87.90
2019-03-10T10:09:49.640Z,86.50
2019-03-10T10:12:34.530Z,85.30
2019-03-10T10:15:14.148Z,87.00
2019-03-10T10:17:52.825Z,87.90
2019-03-10T10:20:26.805Z,88.10
2019-03-10T10:23:00.555Z,88.10
2019-03-10T10:25:33.369Z,89.40
2019-03-10T10:28:09.710Z,90.30
2019-03-10T10:30:48.820Z,89.20
2019-03-10T10:33:27.946Z,89.00
2019-03-10T10:36:09.922Z,88.10
2019-03-10T10:38:45.869Z,89.40
2019-03-10T10:41:32.233Z,86.50
2019-03-10T10:44:05.106Z,86.40
2019-03-10T10:46:44.555Z,88.30
2019-03-10T10:49:20.679Z,88.50
2019-03-10T10:52:07.335Z,88.20
2019-03-10T10:54:46.470Z,86.60
2019-03-10T10:57:34.389Z,86.40
2019-03-10T11:00:05.073Z,87.00
2019-03-10T11:02:35.217Z,86.70
2019-03-10T11:05:06.277Z,87.70
2019-03-10T11:07:36.350Z,88.40
2019-03-10T11:10:09.834Z,88.40
2019-03-10T11:12:54.993Z,87.10
2019-03-10T11:15:25.061Z,87.20
2019-03-10T11:17:55.201Z,88.50
2019-03-10T11:20:28.201Z,88.50
2019-03-10T11:23:14.509Z,90.00
2019-03-10T11:25:44.858Z,89.60
2019-03-10T11:28:24.054Z,89.30
2019-03-10T11:30:56.837Z,88.70
2019-03-10T11:33:34.166Z,87.60
2019-03-10T11:36:13.223Z,87.80
2019-03-10T11:38:43.287Z,83.30
2019-03-10T11:41:16.579Z,84.70
2019-03-10T11:43:49.091Z,85.00
2019-03-10T11:46:36.601Z,85.20
2019-03-10T11:49:22.788Z,83.50
2019-03-10T11:51:55.917Z,83.70
2019-03-10T11:54:32.110Z,84.60
2019-03-10T11:57:05.129Z,83.40
2019-03-10T11:59:35.201Z,82.60
2019-03-10T12:02:15.586Z,83.80
2019-03-10T12:04:42.896Z,84.90
2019-03-10T12:07:12.943Z,83.10
2019-03-10T12:09:41.429Z,82.00
2019-03-10T12:12:10.158Z,80.90
2019-03-10T12:14:38.618Z,80.00
2019-03-10T12:17:07.114Z,77.50
2019-03-10T12:19:35.824Z,76.00
2019-03-10T12:22:04.238Z,76.80
2019-03-10T12:24:32.730Z,76.30
2019-03-10T12:27:01.161Z,75.00
2019-03-10T12:29:29.610Z,74.80
2019-03-10T12:31:58.068Z,73.10
2019-03-10T12:34:26.517Z,71.20
2019-03-10T12:36:54.919Z,70.50
2019-03-10T12:39:23.366Z,66.70
2019-03-10T12:41:58.365Z,67.70
2019-03-10T12:44:21.884Z,66.50
2019-03-10T12:46:50.293Z,65.40
2019-03-10T12:49:18.705Z,65.20
2019-03-10T12:51:47.216Z,64.80
2019-03-10T12:54:15.617Z,64.10
2019-03-10T12:56:44.033Z,61.00
2019-03-10T12:59:12.485Z,60.00
2019-03-10T13:01:40.910Z,60.60
2019-03-10T13:04:09.317Z,60.50
2019-03-10T13:06:37.746Z,60.60
2019-03-10T13:09:08.024Z,59.70
2019-03-10T13:11:36.454Z,59.10
2019-03-10T13:14:04.863Z,59.00
2019-03-10T13:16:33.289Z,58.20
2019-03-10T13:19:01.765Z,56.50
2019-03-10T13:21:30.350Z,56.60
2019-03-10T13:23:58.763Z,55.90
2019-03-10T13:26:27.245Z,56.00
2019-03-10T13:28:55.686Z,55.10
2019-03-10T13:31:24.167Z,55.30
2019-03-10T13:33:52.604Z,54.40
2019-03-10T13:36:21.100Z,54.10
2019-03-10T13:38:49.505Z,53.20
2019-03-10T13:41:18.294Z,53.40
2019-03-10T13:43:46.730Z,53.20
2019-03-10T13:46:15.154Z,53.70
2019-03-10T13:48:43.566Z,53.40
2019-03-10T13:51:12.021Z,52.30
2019-03-10T13:53:40.469Z,50.00
2019-03-10T13:56:08.887Z,50.90
2019-03-10T13:58:37.297Z,49.80
2019-03-10T14:01:06.156Z,48.50
2019-03-10T14:03:34.606Z,48.80
2019-03-10T14:06:03.033Z,48.60
2019-03-10T14:08:31.442Z,47.30
2019-03-10T14:10:59.888Z,47.10
2019-03-10T14:13:28.292Z,47.90
2019-03-10T14:15:56.753Z,47.10
2019-03-10T14:18:25.433Z,47.10
2019-03-10T14:20:53.872Z,47.60
2019-03-10T14:23:22.346Z,47.50
2019-03-10T14:25:50.777Z,48.00
2019-03-10T14:28:22.150Z,47.60
2019-03-10T14:30:50.199Z,47.60
2019-03-10T14:33:18.673Z,46.40
2019-03-10T14:35:47.073Z,46.30
2019-03-10T14:38:15.568Z,46.70
2019-03-10T14:40:44.245Z,46.10
2019-03-10T14:43:12.657Z,45.40
2019-03-10T14:45:41.076Z,47.50
2019-03-10T14:48:09.499Z,50.10
2019-03-10T14:50:37.920Z,49.20
2019-03-10T14:53:06.338Z,50.00
2019-03-10T14:55:34.779Z,49.80
2019-03-10T14:58:03.201Z,49.80
2019-03-10T15:00:31.887Z,49.10
2019-03-10T15:03:00.397Z,51.80
2019-03-10T15:05:28.845Z,52.20
2019-03-10T15:07:57.384Z,52.80
2019-03-10T15:10:25.809Z,51.40
2019-03-10T15:12:54.264Z,51.00
2019-03-10T15:15:23.403Z,48.80
2019-03-10T15:17:52.078Z,46.50
2019-03-10T15:20:21.661Z,45.60
2019-03-10T15:22:50.560Z,44.20
2019-03-10T15:25:20.307Z,44.60
2019-03-10T15:27:48.910Z,44.10
2019-03-10T15:30:24.806Z,44.70
2019-03-10T15:32:53.298Z,44.30
2019-03-10T15:35:21.781Z,44.50
2019-03-10T15:37:50.302Z,44.00
2019-03-10T15:40:19.346Z,44.40
2019-03-10T15:42:47.834Z,44.50
2019-03-10T15:45:17.500Z,44.10
2019-03-10T15:47:46.045Z,45.30
2019-03-10T15:50:29.148Z,44.00
2019-03-10T15:52:57.571Z,45.20
2019-03-10T15:55:25.974Z,46.70
2019-03-10T15:57:54.460Z,48.20
2019-03-10T16:00:27.389Z,51.10
2019-03-10T16:02:56.173Z,55.90
2019-03-10T16:05:24.736Z,57.60
2019-03-10T16:07:53.137Z,58.60
2019-03-10T16:10:21.660Z,57.90
2019-03-10T16:12:50.155Z,58.90
2019-03-10T16:15:23.208Z,58.80
2019-03-10T16:17:51.626Z,57.90
2019-03-10T16:20:20.130Z,56.30
2019-03-10T16:22:48.627Z,56.10
2019-03-10T16:25:19.285Z,52.00
2019-03-10T16:27:49.808Z,51.60
2019-03-10T16:30:25.946Z,49.30
2019-03-10T16:32:54.437Z,47.90
2019-03-10T16:35:22.863Z,45.00
2019-03-10T16:37:52.322Z,45.10
2019-03-10T16:40:21.870Z,44.70
2019-03-10T16:42:50.561Z,43.80
2019-03-10T16:45:29.197Z,44.80
2019-03-10T16:47:58.001Z,44.10
2019-03-10T16:50:27.664Z,42.60
2019-03-10T16:52:56.258Z,41.90
2019-03-10T16:55:24.690Z,43.80
2019-03-10T16:57:53.211Z,44.80
2019-03-10T17:00:21.777Z,46.40
2019-03-10T17:02:51.746Z,45.80
2019-03-10T17:05:21.410Z,45.10
2019-03-10T17:07:50.825Z,45.20
2019-03-10T17:10:26.958Z,43.80
2019-03-10T17:12:55.467Z,44.00
2019-03-10T17:15:24.704Z,44.80
2019-03-10T17:17:53.923Z,44.50
2019-03-10T17:20:22.313Z,43.70
2019-03-10T17:22:50.816Z,43.60
2019-03-10T17:25:19.243Z,44.10
2019-03-10T17:27:47.716Z,43.60
2019-03-10T17:30:22.749Z,44.30
2019-03-10T17:32:51.289Z,43.90
2019-03-10T17:35:20.595Z,44.50
2019-03-10T17:37:49.351Z,43.00
2019-03-10T17:40:22.218Z,43.30
2019-03-10T17:42:50.811Z,43.90
2019-03-10T17:45:20.346Z,44.20
2019-03-10T17:47:49.169Z,43.50
2019-03-10T17:50:18.937Z,43.10
2019-03-10T17:52:48.021Z,43.20
2019-03-10T17:55:23.193Z,43.10
2019-03-10T17:57:52.011Z,43.40
2019-03-10T18:00:23.775Z,44.10
2019-03-10T18:02:52.209Z,44.30
2019-03-10T18:05:20.662Z,44.70
2019-03-10T18:07:49.356Z,45.00
2019-03-10T18:10:18.746Z,44.80
2019-03-10T18:12:47.586Z,44.40
2019-03-10T18:15:17.691Z,44.10
2019-03-10T18:17:46.424Z,44.80
2019-03-10T18:20:19.546Z,44.50
2019-03-10T18:22:48.018Z,44.80
2019-03-10T18:25:16.937Z,44.60
2019-03-10T18:27:45.581Z,44.30
2019-03-10T18:30:24.446Z,43.90
2019-03-10T18:32:52.941Z,43.60
2019-03-10T18:35:21.502Z,40.70
2019-03-10T18:37:50.193Z,40.40
2019-03-10T18:40:26.815Z,40.60
2019-03-10T18:42:55.307Z,39.60
2019-03-10T18:45:24.033Z,39.20
2019-03-10T18:47:52.559Z,38.60
2019-03-10T18:50:28.294Z,39.30
2019-03-10T18:52:57.009Z,38.30
2019-03-10T18:55:25.581Z,36.70
2019-03-10T18:57:54.063Z,36.20
2019-03-10T19:00:34.537Z,34.70
2019-03-10T19:03:02.997Z,34.50
2019-03-10T19:05:31.515Z,34.20
2019-03-10T19:08:00.290Z,35.00
2019-03-10T19:10:28.735Z,35.50
2019-03-10T19:12:57.235Z,36.40
2019-03-10T19:15:26.929Z,37.10
2019-03-10T19:17:55.399Z,37.20
2019-03-10T19:20:24.222Z,36.70
2019-03-10T19:22:52.729Z,36.30
2019-03-10T19:25:21.202Z,36.20
2019-03-10T19:27:49.658Z,36.40
2019-03-10T19:30:20.381Z,36.70
2019-03-10T19:32:48.898Z,36.40
2019-03-10T19:35:17.392Z,37.00
2019-03-10T19:37:45.894Z,37.40
2019-03-10T19:40:22.621Z,38.10
2019-03-10T19:42:51.091Z,38.50
2019-03-10T19:45:23.189Z,36.80
2019-03-10T19:47:51.637Z,36.50
2019-03-10T19:50:27.290Z,35.80
2019-03-10T19:52:55.974Z,35.30
2019-03-10T19:55:24.421Z,34.70
2019-03-10T19:57:52.851Z,34.70
2019-03-10T20:00:22.160Z,34.60
2019-03-10T20:02:50.648Z,34.30
2019-03-10T20:05:19.149Z,34.50
2019-03-10T20:07:47.670Z,35.00
2019-03-10T20:10:19.869Z,35.00
2019-03-10T20:12:48.374Z,35.50
2019-03-10T20:15:18.266Z,35.90
2019-03-10T20:17:46.794Z,35.50
2019-03-10T20:20:16.922Z,35.60
2019-03-10T20:22:45.364Z,37.80
2019-03-10T20:25:15.237Z,39.70
2019-03-10T20:27:44.501Z,43.10
2019-03-10T20:30:20.299Z,46.10
2019-03-10T20:32:49.159Z,48.10
2019-03-10T20:35:18.123Z,48.10
2019-03-10T20:37:46.828Z,47.50
2019-03-10T20:40:20.188Z,48.50
2019-03-10T20:42:48.635Z,52.80
2019-03-10T20:45:17.299Z,54.40
2019-03-10T20:47:45.881Z,55.10
2019-03-10T20:50:16.829Z,56.00
2019-03-10T20:52:46.365Z,56.90
2019-03-10T20:55:15.606Z,57.60
2019-03-10T20:57:44.486Z,58.70
2019-03-10T21:00:15.417Z,59.00
2019-03-10T21:02:43.917Z,58.60
2019-03-10T21:05:12.860Z,59.00
2019-03-10T21:07:41.309Z,57.50
2019-03-10T21:10:12.854Z,57.10
2019-03-10T21:12:42.916Z,56.50
2019-03-10T21:15:14.090Z,56.90
2019-03-10T21:17:42.571Z,54.40
2019-03-10T21:20:19.249Z,53.50
2019-03-10T21:22:47.821Z,52.60
2019-03-10T21:25:27.173Z,51.40
2019-03-10T21:27:55.765Z,51.20
2019-03-10T21:30:31.309Z,51.50
2019-03-10T21:32:59.736Z,50.20
2019-03-10T21:35:28.205Z,49.70
2019-03-10T21:37:56.717Z,48.60
2019-03-10T21:40:27.690Z,47.80
2019-03-10T21:42:56.182Z,47.00
2019-03-10T21:45:24.695Z,47.40
2019-03-10T21:47:53.181Z,47.20
2019-03-10T21:50:21.770Z,46.90
2019-03-10T21:52:50.228Z,45.60
2019-03-10T21:55:19.604Z,44.70
2019-03-10T21:57:48.008Z,43.90
2019-03-10T22:00:20.289Z,43.30
2019-03-10T22:02:48.780Z,43.20
2019-03-10T22:05:18.045Z,42.20
2019-03-10T22:07:46.638Z,42.20
2019-03-10T22:10:27.113Z,42.50
2019-03-10T22:12:49.017Z,41.80
2019-03-10T22:15:18.660Z,42.20
2019-03-10T22:17:47.960Z,39.90
2019-03-10T22:20:17.692Z,38.40
2019-03-10T22:22:49.197Z,38.90
2019-03-10T22:25:16.496Z,37.50
2019-03-10T22:27:46.190Z,37.40
2019-03-10T22:30:17.098Z,37.50
2019-03-10T22:32:45.731Z,37.40
2019-03-10T22:35:14.403Z,37.40
2019-03-10T22:37:43.050Z,36.20
2019-03-10T22:40:12.843Z,36.10
2019-03-10T22:42:41.321Z,34.80
2019-03-10T22:45:12.295Z,34.70
2019-03-10T22:47:41.044Z,34.60
2019-03-10T22:50:13.134Z,34.80
2019-03-10T22:52:41.566Z,35.90
2019-03-10T22:55:11.213Z,35.60
2019-03-10T22:57:39.705Z,36.10
2019-03-10T23:00:20.374Z,35.10
2019-03-10T23:02:48.877Z,35.20
2019-03-10T23:05:17.311Z,35.20
2019-03-10T23:07:45.742Z,35.00
2019-03-10T23:10:15.046Z,35.50
2019-03-10T23:12:43.620Z,36.10
2019-03-10T23:15:13.871Z,36.40
2019-03-10T23:17:42.454Z,36.80
2019-03-10T23:20:15.125Z,37.90
2019-03-10T23:22:43.727Z,38.80
2019-03-10T23:25:12.677Z,39.80
2019-03-10T23:27:41.170Z,41.00
2019-03-10T23:30:14.841Z,41.70
2019-03-10T23:32:43.313Z,42.50
2019-03-10T23:35:11.803Z,42.60
2019-03-10T23:37:40.274Z,42.60
2019-03-10T23:40:11.817Z,42.50
2019-03-10T23:42:40.313Z,42.80
2019-03-10T23:45:11.772Z,42.50
2019-03-10T23:47:40.301Z,41.40
2019-03-10T23:50:14.210Z,41.60
2019-03-10T23:52:42.666Z,41.20
2019-03-10T23:55:12.841Z,41.00
2019-03-10T23:57:41.269Z,41.20
